sensor_id;sensor_type;location;lat;lon;timestamp;temperature;humidity
9668;DHT22;4872;48.316;10.650;2023-04-06T05:10:22;-0.70;71.10
9668;DHT22;4872;48.316;10.650;2023-04-06T05:12:48;-0.50;70.60
9668;DHT22;4872;48.316;10.650;2023-04-06T05:15:18;0.10;70.80
9668;DHT22;4872;48.316;10.650;2023-04-06T05:17:45;-0.20;70.00
9668;DHT22;4872;48.316;10.650;2023-04-06T05:20:11;-0.10;69.60
9668;DHT22;4872;48.316;10.650;2023-04-06T05:22:38;0.00;69.60
9668;DHT22;4872;48.316;10.650;2023-04-06T05:25:05;0.00;69.00
9668;DHT22;4872;48.316;10.650;2023-04-06T05:27:33;0.00;69.50
9668;DHT22;4872;48.316;10.650;2023-04-06T05:30:00;0.20;69.30
9668;DHT22;4872;48.316;10.650;2023-04-06T05:32:27;0.00;69.30
9668;DHT22;4872;48.316;10.650;2023-04-06T05:34:54;0.00;69.50
9668;DHT22;4872;48.316;10.650;2023-04-06T05:37:21;0.10;69.50
9668;DHT22;4872;48.316;10.650;2023-04-06T05:39:48;0.20;69.70
9668;DHT22;4872;48.316;10.650;2023-04-06T05:42:15;0.30;69.90
9668;DHT22;4872;48.316;10.650;2023-04-06T05:44:43;0.30;69.90
9668;DHT22;4872;48.316;10.650;2023-04-06T05:47:10;0.40;70.10
9668;DHT22;4872;48.316;10.650;2023-04-06T05:49:37;0.50;70.20
9668;DHT22;4872;48.316;10.650;2023-04-06T05:52:04;0.60;70.20
9668;DHT22;4872;48.316;10.650;2023-04-06T05:54:30;0.70;69.90
9668;DHT22;4872;48.316;10.650;2023-04-06T05:56:57;0.60;69.00
9668;DHT22;4872;48.316;10.650;2023-04-06T05:59:24;0.70;69.40
9668;DHT22;4872;48.316;10.650;2023-04-06T06:01:52;0.70;69.20
9668;DHT22;4872;48.316;10.650;2023-04-06T06:04:19;0.70;68.90
9668;DHT22;4872;48.316;10.650;2023-04-06T06:06:45;0.60;68.60
9668;DHT22;4872;48.316;10.650;2023-04-06T06:09:12;0.60;69.10
9668;DHT22;4872;48.316;10.650;2023-04-06T06:11:39;0.70;69.90
9668;DHT22;4872;48.316;10.650;2023-04-06T06:14:06;0.70;69.40
9668;DHT22;4872;48.316;10.650;2023-04-06T06:16:33;0.80;69.60
9668;DHT22;4872;48.316;10.650;2023-04-06T06:19:02;0.80;69.40
9668;DHT22;4872;48.316;10.650;2023-04-06T06:21:28;0.90;69.80
9668;DHT22;4872;48.316;10.650;2023-04-06T06:23:56;0.90;69.10
9668;DHT22;4872;48.316;10.650;2023-04-06T06:26:22;0.60;69.30
9668;DHT22;4872;48.316;10.650;2023-04-06T06:28:49;0.40;69.80
9668;DHT22;4872;48.316;10.650;2023-04-06T06:31:16;0.30;70.90
9668;DHT22;4872;48.316;10.650;2023-04-06T06:33:46;0.30;71.10
9668;DHT22;4872;48.316;10.650;2023-04-06T06:36:16;0.30;70.90
9668;DHT22;4872;48.316;10.650;2023-04-06T06:38:43;0.20;70.80
9668;DHT22;4872;48.316;10.650;2023-04-06T06:41:11;0.40;71.40
9668;DHT22;4872;48.316;10.650;2023-04-06T06:43:38;0.40;71.40
9668;DHT22;4872;48.316;10.650;2023-04-06T06:46:05;0.60;71.50
9668;DHT22;4872;48.316;10.650;2023-04-06T06:48:32;0.60;71.40
9668;DHT22;4872;48.316;10.650;2023-04-06T06:50:58;0.80;71.40
9668;DHT22;4872;48.316;10.650;2023-04-06T06:53:27;0.80;71.90
9668;DHT22;4872;48.316;10.650;2023-04-06T06:55:53;0.90;71.70
9668;DHT22;4872;48.316;10.650;2023-04-06T06:58:21;1.20;71.80
9668;DHT22;4872;48.316;10.650;2023-04-06T07:00:48;1.40;71.20
9668;DHT22;4872;48.316;10.650;2023-04-06T07:03:15;1.60;71.50
9668;DHT22;4872;48.316;10.650;2023-04-06T07:05:45;1.90;71.30
9668;DHT22;4872;48.316;10.650;2023-04-06T07:08:18;2.10;70.90
9668;DHT22;4872;48.316;10.650;2023-04-06T07:10:46;2.40;70.70
9668;DHT22;4872;48.316;10.650;2023-04-06T07:13:13;2.60;70.50
9668;DHT22;4872;48.316;10.650;2023-04-06T07:15:43;2.80;70.40
9668;DHT22;4872;48.316;10.650;2023-04-06T07:18:10;2.90;70.30
9668;DHT22;4872;48.316;10.650;2023-04-06T07:20:37;3.10;69.50
9668;DHT22;4872;48.316;10.650;2023-04-06T07:23:03;3.30;69.70
9668;DHT22;4872;48.316;10.650;2023-04-06T07:25:30;3.50;69.70
9668;DHT22;4872;48.316;10.650;2023-04-06T07:27:58;3.60;69.90
9668;DHT22;4872;48.316;10.650;2023-04-06T07:30:25;4.00;70.10
9668;DHT22;4872;48.316;10.650;2023-04-06T07:32:53;4.00;69.70
9668;DHT22;4872;48.316;10.650;2023-04-06T07:35:21;4.10;69.60
9668;DHT22;4872;48.316;10.650;2023-04-06T07:37:47;4.20;69.90
9668;DHT22;4872;48.316;10.650;2023-04-06T07:40:14;4.30;70.40
9668;DHT22;4872;48.316;10.650;2023-04-06T07:42:41;4.60;70.60
9668;DHT22;4872;48.316;10.650;2023-04-06T07:45:10;4.70;71.00
9668;DHT22;4872;48.316;10.650;2023-04-06T07:47:37;4.70;71.70
9668;DHT22;4872;48.316;10.650;2023-04-06T07:50:04;4.80;72.20
9668;DHT22;4872;48.316;10.650;2023-04-06T07:52:31;4.70;72.80
9668;DHT22;4872;48.316;10.650;2023-04-06T07:54:58;4.80;73.60
9668;DHT22;4872;48.316;10.650;2023-04-06T07:57:25;4.90;74.20
9668;DHT22;4872;48.316;10.650;2023-04-06T07:59:51;5.10;73.30
9668;DHT22;4872;48.316;10.650;2023-04-06T08:02:20;5.50;72.80
9668;DHT22;4872;48.316;10.650;2023-04-06T08:04:47;5.40;72.60
9668;DHT22;4872;48.316;10.650;2023-04-06T08:07:13;6.00;73.50
9668;DHT22;4872;48.316;10.650;2023-04-06T08:09:40;6.70;72.00
9668;DHT22;4872;48.316;10.650;2023-04-06T08:12:07;7.50;69.20
9668;DHT22;4872;48.316;10.650;2023-04-06T08:14:34;8.30;68.80
9668;DHT22;4872;48.316;10.650;2023-04-06T08:17:00;9.00;63.70
9668;DHT22;4872;48.316;10.650;2023-04-06T08:19:28;9.30;60.10
9668;DHT22;4872;48.316;10.650;2023-04-06T08:21:55;9.60;59.70
9668;DHT22;4872;48.316;10.650;2023-04-06T08:24:22;9.80;59.80
9668;DHT22;4872;48.316;10.650;2023-04-06T08:26:49;10.20;58.80
9668;DHT22;4872;48.316;10.650;2023-04-06T08:29:16;10.40;57.30
9668;DHT22;4872;48.316;10.650;2023-04-06T08:31:43;10.70;56.20
9668;DHT22;4872;48.316;10.650;2023-04-06T08:34:10;11.00;54.00
9668;DHT22;4872;48.316;10.650;2023-04-06T08:36:38;10.90;51.70
9668;DHT22;4872;48.316;10.650;2023-04-06T08:39:05;10.70;51.80
9668;DHT22;4872;48.316;10.650;2023-04-06T08:41:32;10.70;51.70
9668;DHT22;4872;48.316;10.650;2023-04-06T08:44:00;10.90;52.40
9668;DHT22;4872;48.316;10.650;2023-04-06T08:46:28;10.80;51.90
9668;DHT22;4872;48.316;10.650;2023-04-06T08:48:56;11.10;52.00
9668;DHT22;4872;48.316;10.650;2023-04-06T08:51:23;10.70;51.40
9668;DHT22;4872;48.316;10.650;2023-04-06T08:53:55;10.70;50.20
9668;DHT22;4872;48.316;10.650;2023-04-06T08:56:23;10.90;51.40
9668;DHT22;4872;48.316;10.650;2023-04-06T08:58:50;10.90;51.50
9668;DHT22;4872;48.316;10.650;2023-04-06T09:01:23;11.20;50.70
9668;DHT22;4872;48.316;10.650;2023-04-06T09:03:51;11.30;50.70
9668;DHT22;4872;48.316;10.650;2023-04-06T09:06:21;11.60;50.90
9668;DHT22;4872;48.316;10.650;2023-04-06T09:08:48;12.10;50.20
9668;DHT22;4872;48.316;10.650;2023-04-06T09:11:16;12.50;51.40
9668;DHT22;4872;48.316;10.650;2023-04-06T09:13:47;12.40;50.20
9668;DHT22;4872;48.316;10.650;2023-04-06T09:16:14;12.40;49.60
9668;DHT22;4872;48.316;10.650;2023-04-06T09:18:42;12.60;50.50
9668;DHT22;4872;48.316;10.650;2023-04-06T09:21:09;12.80;49.20
9668;DHT22;4872;48.316;10.650;2023-04-06T09:23:36;13.00;49.90
9668;DHT22;4872;48.316;10.650;2023-04-06T09:26:08;13.10;49.40
9668;DHT22;4872;48.316;10.650;2023-04-06T09:28:44;13.50;49.80
9668;DHT22;4872;48.316;10.650;2023-04-06T09:31:12;13.70;48.80
9668;DHT22;4872;48.316;10.650;2023-04-06T09:33:40;13.90;48.80
9668;DHT22;4872;48.316;10.650;2023-04-06T09:36:07;13.80;47.40
9668;DHT22;4872;48.316;10.650;2023-04-06T09:38:37;13.70;47.70
9668;DHT22;4872;48.316;10.650;2023-04-06T09:41:04;13.60;46.80
9668;DHT22;4872;48.316;10.650;2023-04-06T09:43:31;13.40;46.30
9668;DHT22;4872;48.316;10.650;2023-04-06T09:46:00;13.10;44.30
9668;DHT22;4872;48.316;10.650;2023-04-06T09:48:29;12.60;45.40
9668;DHT22;4872;48.316;10.650;2023-04-06T09:50:59;12.10;45.30
9668;DHT22;4872;48.316;10.650;2023-04-06T09:53:31;12.20;45.30
9668;DHT22;4872;48.316;10.650;2023-04-06T09:56:02;12.60;44.00
9668;DHT22;4872;48.316;10.650;2023-04-06T09:58:34;12.80;42.30
9668;DHT22;4872;48.316;10.650;2023-04-06T10:01:07;13.10;41.90
9668;DHT22;4872;48.316;10.650;2023-04-06T10:03:43;12.70;40.90
9668;DHT22;4872;48.316;10.650;2023-04-06T10:06:13;12.90;43.70
9668;DHT22;4872;48.316;10.650;2023-04-06T10:08:42;13.00;41.70
9668;DHT22;4872;48.316;10.650;2023-04-06T10:11:09;13.20;42.50
9668;DHT22;4872;48.316;10.650;2023-04-06T10:13:36;13.30;42.50
9668;DHT22;4872;48.316;10.650;2023-04-06T10:16:06;13.70;42.60
9668;DHT22;4872;48.316;10.650;2023-04-06T10:18:34;13.70;42.40
9668;DHT22;4872;48.316;10.650;2023-04-06T10:21:04;13.30;40.40
9668;DHT22;4872;48.316;10.650;2023-04-06T10:23:35;13.40;40.20
9668;DHT22;4872;48.316;10.650;2023-04-06T10:26:02;13.90;41.60
9668;DHT22;4872;48.316;10.650;2023-04-06T10:28:31;14.40;42.20
9668;DHT22;4872;48.316;10.650;2023-04-06T10:31:00;14.70;40.70
9668;DHT22;4872;48.316;10.650;2023-04-06T10:33:29;15.20;39.80
9668;DHT22;4872;48.316;10.650;2023-04-06T10:35:56;15.10;41.40
9668;DHT22;4872;48.316;10.650;2023-04-06T10:38:33;15.10;38.80
9668;DHT22;4872;48.316;10.650;2023-04-06T10:41:04;15.50;40.40
9668;DHT22;4872;48.316;10.650;2023-04-06T10:43:33;15.50;39.00
9668;DHT22;4872;48.316;10.650;2023-04-06T10:46:01;15.70;40.40
9668;DHT22;4872;48.316;10.650;2023-04-06T10:48:38;15.30;37.90
9668;DHT22;4872;48.316;10.650;2023-04-06T10:51:09;14.90;36.80
9668;DHT22;4872;48.316;10.650;2023-04-06T10:53:36;14.90;38.50
9668;DHT22;4872;48.316;10.650;2023-04-06T10:56:04;14.30;38.90
9668;DHT22;4872;48.316;10.650;2023-04-06T10:58:31;14.00;40.90
9668;DHT22;4872;48.316;10.650;2023-04-06T11:00:58;14.20;38.60
9668;DHT22;4872;48.316;10.650;2023-04-06T11:03:25;13.60;39.60
9668;DHT22;4872;48.316;10.650;2023-04-06T11:05:53;13.20;39.10
9668;DHT22;4872;48.316;10.650;2023-04-06T11:08:25;13.80;42.00
9668;DHT22;4872;48.316;10.650;2023-04-06T11:10:52;14.40;40.80
9668;DHT22;4872;48.316;10.650;2023-04-06T11:13:19;15.00;39.60
9668;DHT22;4872;48.316;10.650;2023-04-06T11:15:45;15.10;39.40
9668;DHT22;4872;48.316;10.650;2023-04-06T11:18:17;15.30;39.30
9668;DHT22;4872;48.316;10.650;2023-04-06T11:20:47;15.70;39.70
9668;DHT22;4872;48.316;10.650;2023-04-06T11:23:23;16.00;42.10
9668;DHT22;4872;48.316;10.650;2023-04-06T11:25:51;16.10;38.50
9668;DHT22;4872;48.316;10.650;2023-04-06T11:28:33;15.80;37.90
9668;DHT22;4872;48.316;10.650;2023-04-06T11:31:00;14.80;37.40
9668;DHT22;4872;48.316;10.650;2023-04-06T11:33:27;14.10;38.00
9668;DHT22;4872;48.316;10.650;2023-04-06T11:35:57;13.80;37.50
9668;DHT22;4872;48.316;10.650;2023-04-06T11:38:25;13.80;38.30
9668;DHT22;4872;48.316;10.650;2023-04-06T11:40:53;14.00;38.80
9668;DHT22;4872;48.316;10.650;2023-04-06T11:43:26;13.90;37.80
9668;DHT22;4872;48.316;10.650;2023-04-06T11:45:59;13.80;38.30
9668;DHT22;4872;48.316;10.650;2023-04-06T11:48:30;13.80;39.50
9668;DHT22;4872;48.316;10.650;2023-04-06T11:50:58;13.70;39.40
9668;DHT22;4872;48.316;10.650;2023-04-06T11:53:28;13.60;38.30
9668;DHT22;4872;48.316;10.650;2023-04-06T11:55:55;13.30;38.40
9668;DHT22;4872;48.316;10.650;2023-04-06T11:58:22;13.20;37.60
9668;DHT22;4872;48.316;10.650;2023-04-06T12:00:48;13.30;36.30
9668;DHT22;4872;48.316;10.650;2023-04-06T12:03:15;13.80;36.70
9668;DHT22;4872;48.316;10.650;2023-04-06T12:05:43;14.50;37.30
9668;DHT22;4872;48.316;10.650;2023-04-06T12:08:10;14.30;36.60
9668;DHT22;4872;48.316;10.650;2023-04-06T12:10:38;14.50;37.00
9668;DHT22;4872;48.316;10.650;2023-04-06T12:13:05;14.50;36.00
9668;DHT22;4872;48.316;10.650;2023-04-06T12:15:33;14.90;36.50
9668;DHT22;4872;48.316;10.650;2023-04-06T12:18:00;15.40;37.30
9668;DHT22;4872;48.316;10.650;2023-04-06T12:20:27;15.60;38.00
9668;DHT22;4872;48.316;10.650;2023-04-06T12:22:54;15.20;37.60
9668;DHT22;4872;48.316;10.650;2023-04-06T12:25:20;14.80;37.60
9668;DHT22;4872;48.316;10.650;2023-04-06T12:27:49;14.40;38.10
9668;DHT22;4872;48.316;10.650;2023-04-06T12:30:16;14.60;39.00
9668;DHT22;4872;48.316;10.650;2023-04-06T12:32:43;14.70;39.10
9668;DHT22;4872;48.316;10.650;2023-04-06T12:35:10;15.40;39.40
9668;DHT22;4872;48.316;10.650;2023-04-06T12:37:41;15.60;38.70
9668;DHT22;4872;48.316;10.650;2023-04-06T12:40:08;15.70;38.00
9668;DHT22;4872;48.316;10.650;2023-04-06T12:42:38;15.40;37.70
9668;DHT22;4872;48.316;10.650;2023-04-06T12:45:08;14.40;37.80
9668;DHT22;4872;48.316;10.650;2023-04-06T12:47:35;14.30;38.10
9668;DHT22;4872;48.316;10.650;2023-04-06T12:50:06;14.00;37.90
9668;DHT22;4872;48.316;10.650;2023-04-06T12:52:33;13.40;38.30
9668;DHT22;4872;48.316;10.650;2023-04-06T12:55:00;13.20;38.10
9668;DHT22;4872;48.316;10.650;2023-04-06T12:57:28;12.90;37.60
9668;DHT22;4872;48.316;10.650;2023-04-06T12:59:54;12.90;39.30
9668;DHT22;4872;48.316;10.650;2023-04-06T13:02:23;13.10;38.90
9668;DHT22;4872;48.316;10.650;2023-04-06T13:04:50;13.60;39.50
9668;DHT22;4872;48.316;10.650;2023-04-06T13:07:17;13.90;38.40
9668;DHT22;4872;48.316;10.650;2023-04-06T13:09:52;14.30;39.50
9668;DHT22;4872;48.316;10.650;2023-04-06T13:12:29;15.00;38.60
9668;DHT22;4872;48.316;10.650;2023-04-06T13:14:56;15.30;38.20
9668;DHT22;4872;48.316;10.650;2023-04-06T13:17:28;15.20;37.50
9668;DHT22;4872;48.316;10.650;2023-04-06T13:19:58;15.30;37.00
9668;DHT22;4872;48.316;10.650;2023-04-06T13:22:25;15.10;36.60
9668;DHT22;4872;48.316;10.650;2023-04-06T13:24:52;14.90;37.70
9668;DHT22;4872;48.316;10.650;2023-04-06T13:27:19;15.10;38.50
9668;DHT22;4872;48.316;10.650;2023-04-06T13:29:46;15.40;38.30
9668;DHT22;4872;48.316;10.650;2023-04-06T13:32:12;15.70;37.50
9668;DHT22;4872;48.316;10.650;2023-04-06T13:34:40;16.10;39.10
9668;DHT22;4872;48.316;10.650;2023-04-06T13:37:11;16.40;39.90
9668;DHT22;4872;48.316;10.650;2023-04-06T13:39:37;16.40;38.40
9668;DHT22;4872;48.316;10.650;2023-04-06T13:42:04;16.70;37.20
9668;DHT22;4872;48.316;10.650;2023-04-06T13:44:32;16.00;35.60
9668;DHT22;4872;48.316;10.650;2023-04-06T13:46:58;15.30;37.70
9668;DHT22;4872;48.316;10.650;2023-04-06T13:49:25;15.20;36.60
9668;DHT22;4872;48.316;10.650;2023-04-06T13:51:54;14.70;37.50
9668;DHT22;4872;48.316;10.650;2023-04-06T13:54:21;14.80;36.20
9668;DHT22;4872;48.316;10.650;2023-04-06T13:56:48;14.60;36.10
9668;DHT22;4872;48.316;10.650;2023-04-06T13:59:14;14.60;36.90
9668;DHT22;4872;48.316;10.650;2023-04-06T14:01:41;14.20;37.30
9668;DHT22;4872;48.316;10.650;2023-04-06T14:04:08;13.60;36.30
9668;DHT22;4872;48.316;10.650;2023-04-06T14:06:36;13.00;37.00
9668;DHT22;4872;48.316;10.650;2023-04-06T14:09:05;12.40;37.20
9668;DHT22;4872;48.316;10.650;2023-04-06T14:11:31;11.90;37.70
9668;DHT22;4872;48.316;10.650;2023-04-06T14:13:59;12.00;38.10
9668;DHT22;4872;48.316;10.650;2023-04-06T14:16:26;12.40;40.50
9668;DHT22;4872;48.316;10.650;2023-04-06T14:18:52;13.00;38.30
9668;DHT22;4872;48.316;10.650;2023-04-06T14:21:20;13.70;38.70
9668;DHT22;4872;48.316;10.650;2023-04-06T14:23:47;14.60;37.90
9668;DHT22;4872;48.316;10.650;2023-04-06T14:26:15;14.90;36.90
9668;DHT22;4872;48.316;10.650;2023-04-06T14:28:42;14.70;36.20
9668;DHT22;4872;48.316;10.650;2023-04-06T14:31:12;14.70;36.40
9668;DHT22;4872;48.316;10.650;2023-04-06T14:33:41;15.00;36.70
9668;DHT22;4872;48.316;10.650;2023-04-06T14:36:09;14.90;36.80
9668;DHT22;4872;48.316;10.650;2023-04-06T14:38:36;14.50;36.20
9668;DHT22;4872;48.316;10.650;2023-04-06T14:41:03;14.50;37.50
9668;DHT22;4872;48.316;10.650;2023-04-06T14:43:32;14.70;36.80
9668;DHT22;4872;48.316;10.650;2023-04-06T14:46:01;15.00;36.60
9668;DHT22;4872;48.316;10.650;2023-04-06T14:48:28;14.40;36.60
9668;DHT22;4872;48.316;10.650;2023-04-06T14:50:56;14.60;37.00
9668;DHT22;4872;48.316;10.650;2023-04-06T14:53:23;15.10;37.10
9668;DHT22;4872;48.316;10.650;2023-04-06T14:55:50;15.40;35.20
9668;DHT22;4872;48.316;10.650;2023-04-06T14:58:17;15.60;35.70
9668;DHT22;4872;48.316;10.650;2023-04-06T15:00:46;15.90;37.00
9668;DHT22;4872;48.316;10.650;2023-04-06T15:03:14;16.20;36.80
9668;DHT22;4872;48.316;10.650;2023-04-06T15:05:41;15.60;34.60
9668;DHT22;4872;48.316;10.650;2023-04-06T15:08:08;14.90;35.40
9668;DHT22;4872;48.316;10.650;2023-04-06T15:10:36;14.80;35.30
9668;DHT22;4872;48.316;10.650;2023-04-06T15:13:03;15.60;34.50
9668;DHT22;4872;48.316;10.650;2023-04-06T15:15:30;15.40;35.10
9668;DHT22;4872;48.316;10.650;2023-04-06T15:17:59;14.70;35.20
9668;DHT22;4872;48.316;10.650;2023-04-06T15:20:27;14.50;35.20
9668;DHT22;4872;48.316;10.650;2023-04-06T15:22:54;14.80;35.40
9668;DHT22;4872;48.316;10.650;2023-04-06T15:25:21;15.00;34.30
9668;DHT22;4872;48.316;10.650;2023-04-06T15:27:47;15.60;34.70
9668;DHT22;4872;48.316;10.650;2023-04-06T15:30:14;16.30;33.00
9668;DHT22;4872;48.316;10.650;2023-04-06T15:32:52;16.90;33.20
9668;DHT22;4872;48.316;10.650;2023-04-06T15:35:20;17.70;33.20
9668;DHT22;4872;48.316;10.650;2023-04-06T15:37:47;18.30;33.60
9668;DHT22;4872;48.316;10.650;2023-04-06T15:40:14;18.30;33.10
9668;DHT22;4872;48.316;10.650;2023-04-06T15:42:41;18.20;32.80
9668;DHT22;4872;48.316;10.650;2023-04-06T15:45:08;18.00;32.70
9668;DHT22;4872;48.316;10.650;2023-04-06T15:47:36;18.00;32.70
9668;DHT22;4872;48.316;10.650;2023-04-06T15:50:04;18.20;33.50
9668;DHT22;4872;48.316;10.650;2023-04-06T15:52:33;18.30;32.50
9668;DHT22;4872;48.316;10.650;2023-04-06T15:55:03;18.10;32.60
9668;DHT22;4872;48.316;10.650;2023-04-06T15:57:30;18.30;32.70
9668;DHT22;4872;48.316;10.650;2023-04-06T15:59:57;18.30;33.30
9668;DHT22;4872;48.316;10.650;2023-04-06T16:02:24;17.50;33.40
9668;DHT22;4872;48.316;10.650;2023-04-06T16:04:54;17.30;33.30
9668;DHT22;4872;48.316;10.650;2023-04-06T16:07:21;17.00;34.30
9668;DHT22;4872;48.316;10.650;2023-04-06T16:09:49;16.50;34.40
9668;DHT22;4872;48.316;10.650;2023-04-06T16:12:16;15.70;34.00
9668;DHT22;4872;48.316;10.650;2023-04-06T16:14:43;15.00;34.50
9668;DHT22;4872;48.316;10.650;2023-04-06T16:17:10;14.40;35.30
9668;DHT22;4872;48.316;10.650;2023-04-06T16:19:37;13.80;36.20
9668;DHT22;4872;48.316;10.650;2023-04-06T16:22:04;13.70;36.40
9668;DHT22;4872;48.316;10.650;2023-04-06T16:24:30;13.40;36.40
9668;DHT22;4872;48.316;10.650;2023-04-06T16:26:58;13.50;36.60
9668;DHT22;4872;48.316;10.650;2023-04-06T16:29:26;12.60;36.10
9668;DHT22;4872;48.316;10.650;2023-04-06T16:31:53;12.40;37.00
9668;DHT22;4872;48.316;10.650;2023-04-06T16:34:19;12.30;38.20
9668;DHT22;4872;48.316;10.650;2023-04-06T16:36:46;12.30;37.50
9668;DHT22;4872;48.316;10.650;2023-04-06T16:39:13;12.30;37.80
9668;DHT22;4872;48.316;10.650;2023-04-06T16:41:41;12.30;38.30
9668;DHT22;4872;48.316;10.650;2023-04-06T16:44:09;12.30;39.10
9668;DHT22;4872;48.316;10.650;2023-04-06T16:46:37;12.30;38.70
9668;DHT22;4872;48.316;10.650;2023-04-06T16:49:04;12.20;38.50
9668;DHT22;4872;48.316;10.650;2023-04-06T16:51:31;12.20;38.80
9668;DHT22;4872;48.316;10.650;2023-04-06T16:53:59;12.10;38.60
9668;DHT22;4872;48.316;10.650;2023-04-06T16:56:26;11.90;38.60
9668;DHT22;4872;48.316;10.650;2023-04-06T16:58:53;11.80;38.40
9668;DHT22;4872;48.316;10.650;2023-04-06T17:01:22;11.90;38.50
9668;DHT22;4872;48.316;10.650;2023-04-06T17:03:50;11.90;39.00
9668;DHT22;4872;48.316;10.650;2023-04-06T17:06:17;11.90;37.90
9668;DHT22;4872;48.316;10.650;2023-04-06T17:08:45;11.90;37.00
9668;DHT22;4872;48.316;10.650;2023-04-06T17:11:12;11.80;38.00
9668;DHT22;4872;48.316;10.650;2023-04-06T17:13:39;11.90;40.30
9668;DHT22;4872;48.316;10.650;2023-04-06T17:16:07;11.90;41.20
9668;DHT22;4872;48.316;10.650;2023-04-06T17:18:35;11.80;41.20
9668;DHT22;4872;48.316;10.650;2023-04-06T17:21:03;11.90;42.40
9668;DHT22;4872;48.316;10.650;2023-04-06T17:23:30;11.90;43.00
9668;DHT22;4872;48.316;10.650;2023-04-06T17:25:57;11.80;43.70
9668;DHT22;4872;48.316;10.650;2023-04-06T17:28:24;11.70;44.30
9668;DHT22;4872;48.316;10.650;2023-04-06T17:30:51;11.70;44.10
9668;DHT22;4872;48.316;10.650;2023-04-06T17:33:18;11.60;45.30
9668;DHT22;4872;48.316;10.650;2023-04-06T17:35:46;11.50;45.30
9668;DHT22;4872;48.316;10.650;2023-04-06T17:38:13;11.50;45.20
9668;DHT22;4872;48.316;10.650;2023-04-06T17:40:40;11.30;43.90
9668;DHT22;4872;48.316;10.650;2023-04-06T17:43:06;11.20;43.50
9668;DHT22;4872;48.316;10.650;2023-04-06T17:45:33;11.10;43.70
9668;DHT22;4872;48.316;10.650;2023-04-06T17:48:00;11.00;44.50
9668;DHT22;4872;48.316;10.650;2023-04-06T17:50:27;10.90;45.30
9668;DHT22;4872;48.316;10.650;2023-04-06T17:52:55;10.80;46.20
9668;DHT22;4872;48.316;10.650;2023-04-06T17:55:22;10.70;46.60
9668;DHT22;4872;48.316;10.650;2023-04-06T17:57:49;10.50;46.90
9668;DHT22;4872;48.316;10.650;2023-04-06T18:00:16;10.40;46.10
9668;DHT22;4872;48.316;10.650;2023-04-06T18:02:48;10.30;46.10
9668;DHT22;4872;48.316;10.650;2023-04-06T18:05:16;10.20;46.30
9668;DHT22;4872;48.316;10.650;2023-04-06T18:07:43;10.20;46.70
9668;DHT22;4872;48.316;10.650;2023-04-06T18:10:12;10.20;47.00
9668;DHT22;4872;48.316;10.650;2023-04-06T18:12:39;10.40;47.20
9668;DHT22;4872;48.316;10.650;2023-04-06T18:15:06;10.00;46.60
9668;DHT22;4872;48.316;10.650;2023-04-06T18:17:33;9.90;47.10
9668;DHT22;4872;48.316;10.650;2023-04-06T18:20:00;9.90;47.40
9668;DHT22;4872;48.316;10.650;2023-04-06T18:22:27;10.00;47.40
9668;DHT22;4872;48.316;10.650;2023-04-06T18:24:54;9.80;48.50
9668;DHT22;4872;48.316;10.650;2023-04-06T18:27:25;9.70;48.30
9668;DHT22;4872;48.316;10.650;2023-04-06T18:29:52;9.90;48.50
9668;DHT22;4872;48.316;10.650;2023-04-06T18:53:09;8.40;51.00
9668;DHT22;4872;48.316;10.650;2023-04-06T18:55:36;8.30;52.00
9668;DHT22;4872;48.316;10.650;2023-04-06T18:58:03;8.50;52.20
9668;DHT22;4872;48.316;10.650;2023-04-06T19:00:29;8.10;52.50
9668;DHT22;4872;48.316;10.650;2023-04-06T19:02:56;8.00;52.80
9668;DHT22;4872;48.316;10.650;2023-04-06T19:05:23;8.00;53.10
9668;DHT22;4872;48.316;10.650;2023-04-06T19:07:50;8.00;52.80
9668;DHT22;4872;48.316;10.650;2023-04-06T19:10:19;8.00;52.30
9668;DHT22;4872;48.316;10.650;2023-04-06T19:12:45;8.00;52.20
9668;DHT22;4872;48.316;10.650;2023-04-06T19:15:13;8.00;52.30
9668;DHT22;4872;48.316;10.650;2023-04-06T19:17:40;7.90;52.40
9668;DHT22;4872;48.316;10.650;2023-04-06T19:20:07;7.90;52.70
9668;DHT22;4872;48.316;10.650;2023-04-06T19:22:34;7.90;52.80
9668;DHT22;4872;48.316;10.650;2023-04-06T19:25:01;8.00;52.90
9668;DHT22;4872;48.316;10.650;2023-04-06T19:27:30;8.80;53.60
9668;DHT22;4872;48.316;10.650;2023-04-06T19:29:56;8.20;53.20
9668;DHT22;4872;48.316;10.650;2023-04-06T19:32:23;8.40;54.10
9668;DHT22;4872;48.316;10.650;2023-04-06T19:34:50;8.10;53.30
9668;DHT22;4872;48.316;10.650;2023-04-06T19:37:17;8.10;53.10
9668;DHT22;4872;48.316;10.650;2023-04-06T19:39:44;8.10;53.00
9668;DHT22;4872;48.316;10.650;2023-04-06T19:42:12;8.50;52.90
9668;DHT22;4872;48.316;10.650;2023-04-06T19:44:41;8.20;52.90
9668;DHT22;4872;48.316;10.650;2023-04-06T19:47:08;8.10;53.00
9668;DHT22;4872;48.316;10.650;2023-04-06T19:49:36;8.10;52.90
9668;DHT22;4872;48.316;10.650;2023-04-06T19:52:05;8.20;52.70
9668;DHT22;4872;48.316;10.650;2023-04-06T19:54:32;8.30;52.70
9668;DHT22;4872;48.316;10.650;2023-04-06T19:57:00;8.10;53.00
9668;DHT22;4872;48.316;10.650;2023-04-06T19:59:27;8.00;53.20
9668;DHT22;4872;48.316;10.650;2023-04-06T20:01:55;8.00;53.20
9668;DHT22;4872;48.316;10.650;2023-04-06T20:04:22;8.00;53.00
9668;DHT22;4872;48.316;10.650;2023-04-06T20:06:49;8.00;53.50
9668;DHT22;4872;48.316;10.650;2023-04-06T20:09:16;7.90;53.50
9668;DHT22;4872;48.316;10.650;2023-04-06T20:11:42;8.10;53.80
9668;DHT22;4872;48.316;10.650;2023-04-06T20:14:09;7.70;54.00
9668;DHT22;4872;48.316;10.650;2023-04-06T20:16:37;7.70;54.20
9668;DHT22;4872;48.316;10.650;2023-04-06T20:19:05;7.60;54.70
9668;DHT22;4872;48.316;10.650;2023-04-06T20:21:32;7.60;54.20
9668;DHT22;4872;48.316;10.650;2023-04-06T20:23:58;7.60;53.50
9668;DHT22;4872;48.316;10.650;2023-04-06T20:26:25;7.90;53.30
9668;DHT22;4872;48.316;10.650;2023-04-06T20:28:52;7.50;53.40
9668;DHT22;4872;48.316;10.650;2023-04-06T20:31:18;7.50;53.40
9668;DHT22;4872;48.316;10.650;2023-04-06T20:33:45;7.50;53.70
9668;DHT22;4872;48.316;10.650;2023-04-06T20:36:13;7.60;53.60
9668;DHT22;4872;48.316;10.650;2023-04-06T20:38:40;7.50;54.10
9668;DHT22;4872;48.316;10.650;2023-04-06T20:41:07;8.10;54.50
9668;DHT22;4872;48.316;10.650;2023-04-06T20:43:34;7.90;54.10
9668;DHT22;4872;48.316;10.650;2023-04-06T20:46:01;8.00;54.60
9668;DHT22;4872;48.316;10.650;2023-04-06T20:48:28;7.60;54.00
9668;DHT22;4872;48.316;10.650;2023-04-06T20:50:56;7.50;54.20
9668;DHT22;4872;48.316;10.650;2023-04-06T20:53:24;7.50;53.90
9668;DHT22;4872;48.316;10.650;2023-04-06T20:55:51;7.60;53.80
9668;DHT22;4872;48.316;10.650;2023-04-06T20:58:18;7.50;53.90
9668;DHT22;4872;48.316;10.650;2023-04-06T21:00:45;7.70;53.40
9668;DHT22;4872;48.316;10.650;2023-04-06T21:03:14;7.50;52.50
9668;DHT22;4872;48.316;10.650;2023-04-06T21:05:47;7.70;52.40
9668;DHT22;4872;48.316;10.650;2023-04-06T21:08:14;7.40;52.40
9668;DHT22;4872;48.316;10.650;2023-04-06T21:10:43;7.50;53.60
9668;DHT22;4872;48.316;10.650;2023-04-06T21:13:09;7.40;56.00
9668;DHT22;4872;48.316;10.650;2023-04-06T21:15:36;7.20;54.40
9668;DHT22;4872;48.316;10.650;2023-04-06T21:18:03;7.40;57.00
9668;DHT22;4872;48.316;10.650;2023-04-06T21:20:30;7.10;58.10
9668;DHT22;4872;48.316;10.650;2023-04-06T21:22:57;7.10;57.80
9668;DHT22;4872;48.316;10.650;2023-04-06T21:25:24;7.00;59.30